Airfield :







YOU CAN JOIN US ON...

 
LOGIN :

Register | Disclaimer

   EN    FR    IT 

 









Legend :    VFR   Marginal VFR   IFR   Intensive IFR   Very Intensive IFR
Visi :
Ceiling :
>= 8 km
>= 3000ft
5 to 8 km
1000 to 3000 ft
1500m to 5 km
500 to 1000 ft
800 to 1500m
200 to 500 ft
< 800m
< 200 ft
Symbols :   Thunderstorms  Fog  Heavy snow  Heavy precipitations  Wind > 20 kt







- Airport Elevation : 107 ft


KBVY - Beverly Municipal

CURRENT METAR :
  • 181653Z 35005KT 10SM OVC004 21/21 A2973 RMK AO2 LTG DSNT E-SW RAE44 SLP061 P0005 T02110206

EXPIRED METARs :
  • 181618Z 02004KT 5SM -RA BR BKN004 BKN044 OVC090 21/21 A2972 RMK AO2 LTG DSNT E-SW P0004 T02060206
  • 181553Z 05006KT 6SM -RA BR SCT004 BKN042 OVC090 21/20 A2972 RMK AO2 LTG DSNT E-SW TSE39 SLP058 TS SE MOV E P0099 T02060200
  • 181534Z 03007KT 4SM -TSRA BR FEW005 BKN032 OVC100 20/20 A2970 RMK AO2 LTG DSNT NE-S TS SE MOV E P0096 T02000200
  • 181521Z 04009KT 3SM -TSRA BR BKN015 OVC100 20/20 A2971 RMK AO2 LTG DSNT NE TS SE MOV E P0091 T02000200
  • 181500Z 36015G20KT 1/4SM +TSRA FG FEW006 BKN010 OVC014 20/19 A2974 RMK AO2 LTG DSNT NE AND SW P0040 T02000194
  • 181453Z 35013G19KT 1 1/2SM +TSRA BR FEW006 BKN010 OVC014 20/19 A2974 RMK AO2 LTG DSNT SW RAB00 TSB49 PRESRR SLP066 LTG NW MOV SE P0030 60031 T02000194 55013
  • 181433Z 05009KT 1 1/2SM -RA BR OVC012 21/19 A2972 RMK AO2 RAB00 P0007 T02060194
  • 181411Z 02007KT 3SM -RA BR OVC010 21/21 A2973 RMK AO2 RAB00 CIG 008V012 P0004 T02110206
  • 181353Z 01005KT 10SM BKN007 OVC013 22/21 A2974 RMK AO2 RAB1255E32 CIG 004V011 SLP064 P0001 T02170211

TAF N/A
KZBW FIR / North America



MET'MAP, your aeronautical weather chart ! - Copyright ORBIFLY December 2007 - Disclaimer

ORBIFLY MET'MAP TEAM :

Programming & Development : Alexandra Zaïnal
Concept & Development : Baudouin d'Aumeries
Co-Development & Prog : Marc-Olivier Méhu
Technical & hardware support : Manuel Goepfert

Contact : metmap@orbifly.com




SOURCES & CREDITS :

   NOAA